sensor_id;sensor_type;location;lat;lon;timestamp;P1;durP1;ratioP1;P2;durP2;ratioP2
54845;SDS011;53889;50.084;8.646;2023-04-06T00:00:04;7.78;;;4.07;;
54845;SDS011;53889;50.084;8.646;2023-04-06T00:02:34;8.30;;;4.57;;
54845;SDS011;53889;50.084;8.646;2023-04-06T00:05:01;8.88;;;4.07;;
54845;SDS011;53889;50.084;8.646;2023-04-06T00:07:28;6.95;;;3.90;;
54845;SDS011;53889;50.084;8.646;2023-04-06T00:09:56;6.32;;;3.75;;
54845;SDS011;53889;50.084;8.646;2023-04-06T00:12:23;6.93;;;3.95;;
54845;SDS011;53889;50.084;8.646;2023-04-06T00:14:49;7.43;;;4.10;;
54845;SDS011;53889;50.084;8.646;2023-04-06T00:17:16;6.93;;;4.18;;
54845;SDS011;53889;50.084;8.646;2023-04-06T00:19:43;8.63;;;4.63;;
54845;SDS011;53889;50.084;8.646;2023-04-06T00:22:10;7.97;;;4.72;;
54845;SDS011;53889;50.084;8.646;2023-04-06T00:24:36;8.80;;;4.32;;
54845;SDS011;53889;50.084;8.646;2023-04-06T00:27:04;7.93;;;4.50;;
54845;SDS011;53889;50.084;8.646;2023-04-06T00:29:31;8.60;;;4.50;;
54845;SDS011;53889;50.084;8.646;2023-04-06T00:31:58;8.43;;;4.03;;
54845;SDS011;53889;50.084;8.646;2023-04-06T00:34:24;8.77;;;4.38;;
54845;SDS011;53889;50.084;8.646;2023-04-06T00:36:51;9.40;;;4.63;;
54845;SDS011;53889;50.084;8.646;2023-04-06T00:39:17;7.40;;;4.38;;
54845;SDS011;53889;50.084;8.646;2023-04-06T00:41:45;8.27;;;4.65;;
54845;SDS011;53889;50.084;8.646;2023-04-06T00:44:17;9.55;;;4.45;;
54845;SDS011;53889;50.084;8.646;2023-04-06T00:46:44;9.65;;;4.57;;
54845;SDS011;53889;50.084;8.646;2023-04-06T00:49:11;10.23;;;4.80;;
54845;SDS011;53889;50.084;8.646;2023-04-06T00:51:38;8.35;;;4.38;;
54845;SDS011;53889;50.084;8.646;2023-04-06T00:54:04;8.60;;;4.53;;
54845;SDS011;53889;50.084;8.646;2023-04-06T00:56:33;8.77;;;4.22;;
54845;SDS011;53889;50.084;8.646;2023-04-06T00:59:00;6.95;;;4.28;;
54845;SDS011;53889;50.084;8.646;2023-04-06T01:01:29;7.60;;;4.38;;
54845;SDS011;53889;50.084;8.646;2023-04-06T01:04:02;8.02;;;4.22;;
54845;SDS011;53889;50.084;8.646;2023-04-06T01:06:31;8.40;;;4.38;;
54845;SDS011;53889;50.084;8.646;2023-04-06T01:09:00;6.80;;;4.00;;
54845;SDS011;53889;50.084;8.646;2023-04-06T01:11:27;6.85;;;3.97;;
54845;SDS011;53889;50.084;8.646;2023-04-06T01:13:55;9.35;;;4.70;;
54845;SDS011;53889;50.084;8.646;2023-04-06T01:16:30;10.18;;;4.75;;
54845;SDS011;53889;50.084;8.646;2023-04-06T01:19:08;8.75;;;4.40;;
54845;SDS011;53889;50.084;8.646;2023-04-06T01:21:35;7.35;;;4.15;;
54845;SDS011;53889;50.084;8.646;2023-04-06T01:24:21;8.68;;;4.40;;
54845;SDS011;53889;50.084;8.646;2023-04-06T01:27:11;9.60;;;4.63;;
54845;SDS011;53889;50.084;8.646;2023-04-06T01:29:56;7.57;;;4.35;;
54845;SDS011;53889;50.084;8.646;2023-04-06T01:32:36;9.57;;;4.68;;
54845;SDS011;53889;50.084;8.646;2023-04-06T01:35:03;6.45;;;4.38;;
54845;SDS011;53889;50.084;8.646;2023-04-06T01:37:33;8.63;;;5.10;;
54845;SDS011;53889;50.084;8.646;2023-04-06T01:40:05;8.05;;;4.70;;
54845;SDS011;53889;50.084;8.646;2023-04-06T01:42:42;11.02;;;5.55;;
54845;SDS011;53889;50.084;8.646;2023-04-06T01:45:13;8.98;;;4.80;;
54845;SDS011;53889;50.084;8.646;2023-04-06T01:47:40;7.45;;;4.38;;
54845;SDS011;53889;50.084;8.646;2023-04-06T01:50:07;9.05;;;4.63;;
54845;SDS011;53889;50.084;8.646;2023-04-06T01:52:40;7.47;;;4.30;;
54845;SDS011;53889;50.084;8.646;2023-04-06T01:55:10;10.05;;;4.70;;
54845;SDS011;53889;50.084;8.646;2023-04-06T01:57:54;9.23;;;5.10;;
54845;SDS011;53889;50.084;8.646;2023-04-06T02:00:31;10.32;;;4.82;;
54845;SDS011;53889;50.084;8.646;2023-04-06T02:02:57;7.75;;;4.20;;
54845;SDS011;53889;50.084;8.646;2023-04-06T02:05:28;10.07;;;5.43;;
54845;SDS011;53889;50.084;8.646;2023-04-06T02:07:57;8.45;;;4.93;;
54845;SDS011;53889;50.084;8.646;2023-04-06T02:10:32;8.38;;;4.82;;
54845;SDS011;53889;50.084;8.646;2023-04-06T02:13:05;8.95;;;5.00;;
54845;SDS011;53889;50.084;8.646;2023-04-06T02:15:33;8.77;;;5.15;;
54845;SDS011;53889;50.084;8.646;2023-04-06T02:18:00;10.38;;;5.07;;
54845;SDS011;53889;50.084;8.646;2023-04-06T02:20:26;8.65;;;5.20;;
54845;SDS011;53889;50.084;8.646;2023-04-06T02:22:53;9.38;;;5.50;;
54845;SDS011;53889;50.084;8.646;2023-04-06T02:25:20;8.80;;;5.05;;
54845;SDS011;53889;50.084;8.646;2023-04-06T02:27:48;10.00;;;5.22;;
54845;SDS011;53889;50.084;8.646;2023-04-06T02:30:14;8.23;;;4.70;;
54845;SDS011;53889;50.084;8.646;2023-04-06T02:32:41;10.80;;;5.30;;
54845;SDS011;53889;50.084;8.646;2023-04-06T02:35:08;10.15;;;5.15;;
54845;SDS011;53889;50.084;8.646;2023-04-06T02:37:35;9.75;;;5.05;;
54845;SDS011;53889;50.084;8.646;2023-04-06T02:40:01;9.10;;;4.78;;
54845;SDS011;53889;50.084;8.646;2023-04-06T02:42:30;11.15;;;4.85;;
54845;SDS011;53889;50.084;8.646;2023-04-06T02:44:58;10.95;;;5.30;;
54845;SDS011;53889;50.084;8.646;2023-04-06T02:47:30;9.00;;;4.97;;
54845;SDS011;53889;50.084;8.646;2023-04-06T02:49:57;8.80;;;5.15;;
54845;SDS011;53889;50.084;8.646;2023-04-06T02:52:24;7.80;;;4.80;;
54845;SDS011;53889;50.084;8.646;2023-04-06T02:54:51;8.88;;;5.30;;
54845;SDS011;53889;50.084;8.646;2023-04-06T02:57:24;8.88;;;4.80;;
54845;SDS011;53889;50.084;8.646;2023-04-06T02:59:50;8.43;;;4.93;;
54845;SDS011;53889;50.084;8.646;2023-04-06T03:02:24;11.40;;;5.10;;
54845;SDS011;53889;50.084;8.646;2023-04-06T03:04:54;6.80;;;4.43;;
54845;SDS011;53889;50.084;8.646;2023-04-06T03:07:27;8.32;;;4.45;;
54845;SDS011;53889;50.084;8.646;2023-04-06T03:09:54;9.20;;;5.05;;
54845;SDS011;53889;50.084;8.646;2023-04-06T03:12:21;7.78;;;4.47;;
54845;SDS011;53889;50.084;8.646;2023-04-06T03:15:11;7.35;;;4.78;;
54845;SDS011;53889;50.084;8.646;2023-04-06T03:17:44;8.85;;;5.10;;
54845;SDS011;53889;50.084;8.646;2023-04-06T03:20:24;9.35;;;4.93;;
54845;SDS011;53889;50.084;8.646;2023-04-06T03:22:51;9.27;;;5.30;;
54845;SDS011;53889;50.084;8.646;2023-04-06T03:25:22;9.30;;;5.10;;
54845;SDS011;53889;50.084;8.646;2023-04-06T03:27:49;7.47;;;5.13;;
54845;SDS011;53889;50.084;8.646;2023-04-06T03:30:18;9.68;;;4.97;;
54845;SDS011;53889;50.084;8.646;2023-04-06T03:32:46;7.97;;;5.10;;
54845;SDS011;53889;50.084;8.646;2023-04-06T03:35:13;10.05;;;5.43;;
54845;SDS011;53889;50.084;8.646;2023-04-06T03:37:39;10.82;;;5.90;;
54845;SDS011;53889;50.084;8.646;2023-04-06T03:40:06;10.27;;;5.90;;
54845;SDS011;53889;50.084;8.646;2023-04-06T03:42:33;10.57;;;5.70;;
54845;SDS011;53889;50.084;8.646;2023-04-06T03:45:05;9.25;;;5.47;;
54845;SDS011;53889;50.084;8.646;2023-04-06T03:47:34;10.73;;;6.10;;
54845;SDS011;53889;50.084;8.646;2023-04-06T03:50:06;9.02;;;5.57;;
54845;SDS011;53889;50.084;8.646;2023-04-06T03:52:34;10.85;;;5.95;;
54845;SDS011;53889;50.084;8.646;2023-04-06T03:55:01;10.48;;;6.25;;
54845;SDS011;53889;50.084;8.646;2023-04-06T03:57:28;10.13;;;6.38;;
54845;SDS011;53889;50.084;8.646;2023-04-06T03:59:56;12.75;;;7.38;;
54845;SDS011;53889;50.084;8.646;2023-04-06T04:02:25;15.27;;;7.85;;
54845;SDS011;53889;50.084;8.646;2023-04-06T04:04:51;14.50;;;7.68;;
54845;SDS011;53889;50.084;8.646;2023-04-06T04:07:19;13.07;;;7.97;;
54845;SDS011;53889;50.084;8.646;2023-04-06T04:09:46;14.73;;;8.48;;
54845;SDS011;53889;50.084;8.646;2023-04-06T04:12:13;14.75;;;8.40;;
54845;SDS011;53889;50.084;8.646;2023-04-06T04:14:41;14.00;;;7.88;;
54845;SDS011;53889;50.084;8.646;2023-04-06T04:17:08;13.27;;;7.47;;
54845;SDS011;53889;50.084;8.646;2023-04-06T04:19:35;13.23;;;7.55;;
54845;SDS011;53889;50.084;8.646;2023-04-06T04:22:02;16.08;;;7.90;;
54845;SDS011;53889;50.084;8.646;2023-04-06T04:24:33;12.85;;;8.07;;
54845;SDS011;53889;50.084;8.646;2023-04-06T04:27:01;15.57;;;8.02;;
54845;SDS011;53889;50.084;8.646;2023-04-06T04:29:30;15.95;;;8.02;;
54845;SDS011;53889;50.084;8.646;2023-04-06T04:32:01;13.18;;;7.75;;
54845;SDS011;53889;50.084;8.646;2023-04-06T04:34:29;14.60;;;7.75;;
54845;SDS011;53889;50.084;8.646;2023-04-06T04:36:56;14.55;;;8.38;;
54845;SDS011;53889;50.084;8.646;2023-04-06T04:39:35;14.68;;;8.00;;
54845;SDS011;53889;50.084;8.646;2023-04-06T04:42:05;14.50;;;8.90;;
54845;SDS011;53889;50.084;8.646;2023-04-06T04:44:34;16.45;;;8.07;;
54845;SDS011;53889;50.084;8.646;2023-04-06T04:47:01;15.35;;;8.40;;
54845;SDS011;53889;50.084;8.646;2023-04-06T04:49:38;13.48;;;7.72;;
54845;SDS011;53889;50.084;8.646;2023-04-06T04:52:05;12.82;;;7.35;;
54845;SDS011;53889;50.084;8.646;2023-04-06T04:54:45;17.10;;;7.63;;
54845;SDS011;53889;50.084;8.646;2023-04-06T04:57:20;10.93;;;6.90;;
54845;SDS011;53889;50.084;8.646;2023-04-06T04:59:47;10.75;;;7.25;;
54845;SDS011;53889;50.084;8.646;2023-04-06T05:02:17;13.25;;;6.70;;
54845;SDS011;53889;50.084;8.646;2023-04-06T05:05:07;12.68;;;7.10;;
54845;SDS011;53889;50.084;8.646;2023-04-06T05:07:35;16.25;;;8.57;;
54845;SDS011;53889;50.084;8.646;2023-04-06T05:10:05;15.57;;;7.82;;
54845;SDS011;53889;50.084;8.646;2023-04-06T05:12:38;14.80;;;8.18;;
54845;SDS011;53889;50.084;8.646;2023-04-06T05:15:09;15.00;;;7.03;;
54845;SDS011;53889;50.084;8.646;2023-04-06T05:17:36;16.13;;;7.47;;
54845;SDS011;53889;50.084;8.646;2023-04-06T05:20:06;13.23;;;7.28;;
54845;SDS011;53889;50.084;8.646;2023-04-06T05:22:41;12.68;;;7.50;;
54845;SDS011;53889;50.084;8.646;2023-04-06T05:25:10;13.38;;;7.50;;
54845;SDS011;53889;50.084;8.646;2023-04-06T05:27:38;12.98;;;7.20;;
54845;SDS011;53889;50.084;8.646;2023-04-06T05:30:14;14.45;;;7.80;;
54845;SDS011;53889;50.084;8.646;2023-04-06T05:32:44;15.07;;;7.72;;
54845;SDS011;53889;50.084;8.646;2023-04-06T05:35:11;22.95;;;9.40;;
54845;SDS011;53889;50.084;8.646;2023-04-06T05:37:41;16.13;;;8.38;;
54845;SDS011;53889;50.084;8.646;2023-04-06T05:40:10;12.48;;;8.20;;
54845;SDS011;53889;50.084;8.646;2023-04-06T05:42:38;12.60;;;7.45;;
54845;SDS011;53889;50.084;8.646;2023-04-06T05:45:06;12.88;;;7.78;;
54845;SDS011;53889;50.084;8.646;2023-04-06T05:47:36;11.02;;;7.53;;
54845;SDS011;53889;50.084;8.646;2023-04-06T05:50:15;14.80;;;7.45;;
54845;SDS011;53889;50.084;8.646;2023-04-06T05:52:42;14.85;;;8.23;;
54845;SDS011;53889;50.084;8.646;2023-04-06T05:55:15;14.77;;;7.47;;
54845;SDS011;53889;50.084;8.646;2023-04-06T05:57:47;13.32;;;7.93;;
54845;SDS011;53889;50.084;8.646;2023-04-06T06:00:16;13.20;;;7.75;;
54845;SDS011;53889;50.084;8.646;2023-04-06T06:02:53;17.65;;;9.82;;
54845;SDS011;53889;50.084;8.646;2023-04-06T06:05:24;15.63;;;8.23;;
54845;SDS011;53889;50.084;8.646;2023-04-06T06:07:51;16.55;;;8.00;;
54845;SDS011;53889;50.084;8.646;2023-04-06T06:10:21;12.05;;;7.43;;
54845;SDS011;53889;50.084;8.646;2023-04-06T06:12:48;13.55;;;7.72;;
54845;SDS011;53889;50.084;8.646;2023-04-06T06:15:16;14.05;;;7.10;;
54845;SDS011;53889;50.084;8.646;2023-04-06T06:17:46;14.57;;;8.20;;
54845;SDS011;53889;50.084;8.646;2023-04-06T06:20:13;13.88;;;7.47;;
54845;SDS011;53889;50.084;8.646;2023-04-06T06:22:40;18.98;;;7.50;;
54845;SDS011;53889;50.084;8.646;2023-04-06T06:25:12;12.05;;;7.10;;
54845;SDS011;53889;50.084;8.646;2023-04-06T06:27:40;14.90;;;7.07;;
54845;SDS011;53889;50.084;8.646;2023-04-06T06:30:07;9.88;;;6.72;;
54845;SDS011;53889;50.084;8.646;2023-04-06T06:32:38;11.02;;;7.03;;
54845;SDS011;53889;50.084;8.646;2023-04-06T06:35:05;11.13;;;6.20;;
54845;SDS011;53889;50.084;8.646;2023-04-06T06:37:32;10.40;;;6.80;;
54845;SDS011;53889;50.084;8.646;2023-04-06T06:40:00;10.43;;;6.25;;
54845;SDS011;53889;50.084;8.646;2023-04-06T06:42:29;10.98;;;6.35;;
54845;SDS011;53889;50.084;8.646;2023-04-06T06:45:07;11.07;;;6.35;;
54845;SDS011;53889;50.084;8.646;2023-04-06T06:47:35;9.00;;;6.60;;
54845;SDS011;53889;50.084;8.646;2023-04-06T06:50:02;9.70;;;6.00;;
54845;SDS011;53889;50.084;8.646;2023-04-06T06:52:29;9.60;;;6.30;;
54845;SDS011;53889;50.084;8.646;2023-04-06T06:54:55;9.07;;;5.90;;
54845;SDS011;53889;50.084;8.646;2023-04-06T06:57:22;9.40;;;6.32;;
54845;SDS011;53889;50.084;8.646;2023-04-06T06:59:49;10.05;;;6.55;;
54845;SDS011;53889;50.084;8.646;2023-04-06T07:02:19;11.05;;;6.88;;
54845;SDS011;53889;50.084;8.646;2023-04-06T07:04:47;11.40;;;6.95;;
54845;SDS011;53889;50.084;8.646;2023-04-06T07:07:14;11.95;;;7.30;;
54845;SDS011;53889;50.084;8.646;2023-04-06T07:09:40;13.88;;;6.70;;
54845;SDS011;53889;50.084;8.646;2023-04-06T07:12:07;9.98;;;6.90;;
54845;SDS011;53889;50.084;8.646;2023-04-06T07:14:35;10.40;;;6.60;;
54845;SDS011;53889;50.084;8.646;2023-04-06T07:17:02;12.10;;;7.50;;
54845;SDS011;53889;50.084;8.646;2023-04-06T07:19:31;12.50;;;7.80;;
54845;SDS011;53889;50.084;8.646;2023-04-06T07:21:58;9.88;;;7.22;;
54845;SDS011;53889;50.084;8.646;2023-04-06T07:24:25;12.23;;;8.32;;
54845;SDS011;53889;50.084;8.646;2023-04-06T07:26:52;10.85;;;7.57;;
54845;SDS011;53889;50.084;8.646;2023-04-06T07:29:19;13.10;;;9.02;;
54845;SDS011;53889;50.084;8.646;2023-04-06T07:31:46;11.55;;;8.35;;
54845;SDS011;53889;50.084;8.646;2023-04-06T07:34:14;13.43;;;8.30;;
54845;SDS011;53889;50.084;8.646;2023-04-06T07:36:42;11.82;;;7.55;;
54845;SDS011;53889;50.084;8.646;2023-04-06T07:39:09;11.65;;;7.75;;
54845;SDS011;53889;50.084;8.646;2023-04-06T07:41:36;11.77;;;8.10;;
54845;SDS011;53889;50.084;8.646;2023-04-06T07:44:03;11.73;;;7.95;;
54845;SDS011;53889;50.084;8.646;2023-04-06T07:46:30;13.07;;;8.35;;
54845;SDS011;53889;50.084;8.646;2023-04-06T07:48:59;11.13;;;7.63;;
54845;SDS011;53889;50.084;8.646;2023-04-06T07:51:29;10.75;;;7.95;;
54845;SDS011;53889;50.084;8.646;2023-04-06T07:53:57;12.80;;;8.10;;
54845;SDS011;53889;50.084;8.646;2023-04-06T07:56:24;10.57;;;7.35;;
54845;SDS011;53889;50.084;8.646;2023-04-06T07:58:51;13.23;;;7.53;;
54845;SDS011;53889;50.084;8.646;2023-04-06T08:01:20;11.02;;;7.88;;
54845;SDS011;53889;50.084;8.646;2023-04-06T08:03:47;10.30;;;7.25;;
54845;SDS011;53889;50.084;8.646;2023-04-06T08:06:14;9.77;;;6.97;;
54845;SDS011;53889;50.084;8.646;2023-04-06T08:08:40;11.18;;;7.53;;
54845;SDS011;53889;50.084;8.646;2023-04-06T08:11:08;12.95;;;7.63;;
54845;SDS011;53889;50.084;8.646;2023-04-06T08:13:35;10.00;;;7.50;;
54845;SDS011;53889;50.084;8.646;2023-04-06T08:16:02;11.90;;;7.30;;
54845;SDS011;53889;50.084;8.646;2023-04-06T08:18:30;10.80;;;7.13;;
54845;SDS011;53889;50.084;8.646;2023-04-06T08:20:56;11.90;;;7.32;;
54845;SDS011;53889;50.084;8.646;2023-04-06T08:23:23;11.38;;;7.22;;
54845;SDS011;53889;50.084;8.646;2023-04-06T08:25:50;12.35;;;8.27;;
54845;SDS011;53889;50.084;8.646;2023-04-06T08:28:20;10.68;;;7.30;;
54845;SDS011;53889;50.084;8.646;2023-04-06T08:30:47;11.02;;;7.40;;
54845;SDS011;53889;50.084;8.646;2023-04-06T08:33:14;10.30;;;7.50;;
54845;SDS011;53889;50.084;8.646;2023-04-06T08:35:40;10.43;;;7.20;;
54845;SDS011;53889;50.084;8.646;2023-04-06T08:38:07;10.85;;;7.40;;
54845;SDS011;53889;50.084;8.646;2023-04-06T08:40:35;11.98;;;7.68;;
54845;SDS011;53889;50.084;8.646;2023-04-06T08:43:02;12.18;;;7.03;;
54845;SDS011;53889;50.084;8.646;2023-04-06T08:45:34;9.93;;;7.40;;
54845;SDS011;53889;50.084;8.646;2023-04-06T08:48:02;10.32;;;7.32;;
54845;SDS011;53889;50.084;8.646;2023-04-06T08:50:30;11.38;;;7.53;;
54845;SDS011;53889;50.084;8.646;2023-04-06T08:52:58;9.05;;;6.60;;
54845;SDS011;53889;50.084;8.646;2023-04-06T08:55:25;9.73;;;7.00;;
54845;SDS011;53889;50.084;8.646;2023-04-06T08:57:52;10.30;;;6.85;;
54845;SDS011;53889;50.084;8.646;2023-04-06T09:00:21;11.05;;;7.47;;
54845;SDS011;53889;50.084;8.646;2023-04-06T09:02:50;9.13;;;6.72;;
54845;SDS011;53889;50.084;8.646;2023-04-06T09:05:19;9.77;;;6.93;;
54845;SDS011;53889;50.084;8.646;2023-04-06T09:07:47;10.90;;;6.95;;
54845;SDS011;53889;50.084;8.646;2023-04-06T09:10:14;11.65;;;7.10;;
54845;SDS011;53889;50.084;8.646;2023-04-06T09:12:42;11.90;;;6.80;;
54845;SDS011;53889;50.084;8.646;2023-04-06T09:15:17;9.07;;;6.63;;
54845;SDS011;53889;50.084;8.646;2023-04-06T09:17:45;9.70;;;6.43;;
54845;SDS011;53889;50.084;8.646;2023-04-06T09:20:13;11.10;;;6.70;;
54845;SDS011;53889;50.084;8.646;2023-04-06T09:22:42;10.63;;;6.78;;
54845;SDS011;53889;50.084;8.646;2023-04-06T09:25:09;10.85;;;6.72;;
54845;SDS011;53889;50.084;8.646;2023-04-06T09:27:37;13.60;;;6.70;;
54845;SDS011;53889;50.084;8.646;2023-04-06T09:30:04;8.50;;;6.15;;
54845;SDS011;53889;50.084;8.646;2023-04-06T09:33:02;9.57;;;6.40;;
54845;SDS011;53889;50.084;8.646;2023-04-06T09:35:30;9.88;;;6.93;;
54845;SDS011;53889;50.084;8.646;2023-04-06T09:37:57;9.57;;;6.22;;
54845;SDS011;53889;50.084;8.646;2023-04-06T09:40:24;10.82;;;6.93;;
54845;SDS011;53889;50.084;8.646;2023-04-06T09:42:52;12.88;;;7.53;;
54845;SDS011;53889;50.084;8.646;2023-04-06T09:45:22;12.65;;;7.18;;
54845;SDS011;53889;50.084;8.646;2023-04-06T09:47:49;10.93;;;7.53;;
54845;SDS011;53889;50.084;8.646;2023-04-06T09:50:19;9.00;;;6.55;;
54845;SDS011;53889;50.084;8.646;2023-04-06T09:52:48;11.63;;;6.60;;
54845;SDS011;53889;50.084;8.646;2023-04-06T09:55:17;11.25;;;7.05;;
54845;SDS011;53889;50.084;8.646;2023-04-06T09:57:50;10.18;;;7.07;;
54845;SDS011;53889;50.084;8.646;2023-04-06T10:00:22;10.48;;;7.25;;
54845;SDS011;53889;50.084;8.646;2023-04-06T10:02:50;10.40;;;6.43;;
54845;SDS011;53889;50.084;8.646;2023-04-06T10:05:24;12.95;;;6.97;;
54845;SDS011;53889;50.084;8.646;2023-04-06T10:07:59;10.82;;;6.18;;
54845;SDS011;53889;50.084;8.646;2023-04-06T10:10:29;10.90;;;6.70;;
54845;SDS011;53889;50.084;8.646;2023-04-06T10:12:56;12.38;;;6.65;;
54845;SDS011;53889;50.084;8.646;2023-04-06T10:15:24;10.60;;;6.82;;
54845;SDS011;53889;50.084;8.646;2023-04-06T10:17:51;9.43;;;6.13;;
54845;SDS011;53889;50.084;8.646;2023-04-06T10:20:21;11.02;;;6.50;;
54845;SDS011;53889;50.084;8.646;2023-04-06T10:22:55;11.00;;;6.60;;
54845;SDS011;53889;50.084;8.646;2023-04-06T10:25:30;10.27;;;5.85;;
54845;SDS011;53889;50.084;8.646;2023-04-06T10:28:00;11.23;;;6.10;;
54845;SDS011;53889;50.084;8.646;2023-04-06T10:30:28;13.88;;;6.60;;
54845;SDS011;53889;50.084;8.646;2023-04-06T10:32:55;13.27;;;7.13;;
54845;SDS011;53889;50.084;8.646;2023-04-06T10:35:22;9.73;;;6.60;;
54845;SDS011;53889;50.084;8.646;2023-04-06T10:37:51;11.30;;;6.70;;
54845;SDS011;53889;50.084;8.646;2023-04-06T10:40:19;11.38;;;6.57;;
54845;SDS011;53889;50.084;8.646;2023-04-06T10:42:49;13.73;;;7.10;;
54845;SDS011;53889;50.084;8.646;2023-04-06T10:45:20;12.05;;;6.50;;
54845;SDS011;53889;50.084;8.646;2023-04-06T10:47:47;10.20;;;6.50;;
54845;SDS011;53889;50.084;8.646;2023-04-06T10:50:15;11.15;;;7.15;;
54845;SDS011;53889;50.084;8.646;2023-04-06T10:52:43;12.98;;;6.75;;
54845;SDS011;53889;50.084;8.646;2023-04-06T10:55:10;11.68;;;6.63;;
54845;SDS011;53889;50.084;8.646;2023-04-06T10:57:39;11.35;;;6.78;;
54845;SDS011;53889;50.084;8.646;2023-04-06T11:00:07;11.10;;;6.78;;
54845;SDS011;53889;50.084;8.646;2023-04-06T11:02:35;11.70;;;7.43;;
54845;SDS011;53889;50.084;8.646;2023-04-06T11:05:02;13.30;;;6.63;;
54845;SDS011;53889;50.084;8.646;2023-04-06T11:07:30;24.23;;;7.68;;
54845;SDS011;53889;50.084;8.646;2023-04-06T11:09:56;13.30;;;7.78;;
54845;SDS011;53889;50.084;8.646;2023-04-06T11:12:23;11.27;;;7.15;;
54845;SDS011;53889;50.084;8.646;2023-04-06T11:14:54;11.10;;;7.40;;
54845;SDS011;53889;50.084;8.646;2023-04-06T11:17:27;13.68;;;7.43;;
54845;SDS011;53889;50.084;8.646;2023-04-06T11:19:54;14.65;;;7.75;;
54845;SDS011;53889;50.084;8.646;2023-04-06T11:22:21;11.98;;;7.40;;
54845;SDS011;53889;50.084;8.646;2023-04-06T11:24:48;12.82;;;7.68;;
54845;SDS011;53889;50.084;8.646;2023-04-06T11:27:15;14.40;;;7.57;;
54845;SDS011;53889;50.084;8.646;2023-04-06T11:29:42;11.38;;;7.70;;
54845;SDS011;53889;50.084;8.646;2023-04-06T11:32:11;15.38;;;8.70;;
54845;SDS011;53889;50.084;8.646;2023-04-06T11:34:47;13.75;;;8.52;;
54845;SDS011;53889;50.084;8.646;2023-04-06T11:37:14;12.98;;;7.82;;
54845;SDS011;53889;50.084;8.646;2023-04-06T11:39:43;14.27;;;8.10;;
54845;SDS011;53889;50.084;8.646;2023-04-06T11:42:20;14.93;;;8.00;;
54845;SDS011;53889;50.084;8.646;2023-04-06T11:44:49;11.18;;;7.10;;
54845;SDS011;53889;50.084;8.646;2023-04-06T11:47:17;13.13;;;7.45;;
54845;SDS011;53889;50.084;8.646;2023-04-06T11:49:46;12.93;;;8.00;;
54845;SDS011;53889;50.084;8.646;2023-04-06T11:52:14;13.93;;;8.02;;
54845;SDS011;53889;50.084;8.646;2023-04-06T11:54:42;13.07;;;8.02;;
54845;SDS011;53889;50.084;8.646;2023-04-06T11:57:08;13.07;;;7.85;;
54845;SDS011;53889;50.084;8.646;2023-04-06T11:59:35;11.95;;;6.72;;
54845;SDS011;53889;50.084;8.646;2023-04-06T12:02:02;13.60;;;7.00;;
54845;SDS011;53889;50.084;8.646;2023-04-06T12:04:29;11.60;;;7.50;;
54845;SDS011;53889;50.084;8.646;2023-04-06T12:06:57;13.95;;;7.80;;
54845;SDS011;53889;50.084;8.646;2023-04-06T12:09:24;12.23;;;7.28;;
54845;SDS011;53889;50.084;8.646;2023-04-06T12:11:51;11.18;;;7.30;;
54845;SDS011;53889;50.084;8.646;2023-04-06T12:14:18;11.95;;;7.00;;
54845;SDS011;53889;50.084;8.646;2023-04-06T12:16:44;14.38;;;7.43;;
54845;SDS011;53889;50.084;8.646;2023-04-06T12:19:11;11.65;;;7.45;;
54845;SDS011;53889;50.084;8.646;2023-04-06T12:21:38;10.90;;;7.22;;
54845;SDS011;53889;50.084;8.646;2023-04-06T12:24:06;12.32;;;6.97;;
54845;SDS011;53889;50.084;8.646;2023-04-06T12:26:33;11.93;;;7.43;;
54845;SDS011;53889;50.084;8.646;2023-04-06T12:29:00;11.02;;;6.88;;
54845;SDS011;53889;50.084;8.646;2023-04-06T12:31:32;12.80;;;7.22;;
54845;SDS011;53889;50.084;8.646;2023-04-06T12:34:00;12.35;;;7.65;;
54845;SDS011;53889;50.084;8.646;2023-04-06T12:36:28;10.10;;;6.72;;
54845;SDS011;53889;50.084;8.646;2023-04-06T12:38:56;11.48;;;7.22;;
54845;SDS011;53889;50.084;8.646;2023-04-06T12:41:24;13.98;;;8.48;;
54845;SDS011;53889;50.084;8.646;2023-04-06T12:43:50;12.27;;;7.68;;
54845;SDS011;53889;50.084;8.646;2023-04-06T12:46:17;11.32;;;7.90;;
54845;SDS011;53889;50.084;8.646;2023-04-06T12:48:44;11.57;;;7.20;;
54845;SDS011;53889;50.084;8.646;2023-04-06T12:51:11;11.35;;;7.22;;
54845;SDS011;53889;50.084;8.646;2023-04-06T12:53:38;11.93;;;7.10;;
54845;SDS011;53889;50.084;8.646;2023-04-06T12:56:11;9.18;;;6.28;;
54845;SDS011;53889;50.084;8.646;2023-04-06T12:58:39;10.45;;;6.85;;
54845;SDS011;53889;50.084;8.646;2023-04-06T13:01:07;14.40;;;7.22;;
54845;SDS011;53889;50.084;8.646;2023-04-06T13:03:34;13.50;;;7.30;;
54845;SDS011;53889;50.084;8.646;2023-04-06T13:06:01;15.15;;;8.35;;
54845;SDS011;53889;50.084;8.646;2023-04-06T13:08:28;15.10;;;7.65;;
54845;SDS011;53889;50.084;8.646;2023-04-06T13:10:54;11.70;;;6.95;;
54845;SDS011;53889;50.084;8.646;2023-04-06T13:13:22;10.13;;;6.45;;
54845;SDS011;53889;50.084;8.646;2023-04-06T13:15:51;11.23;;;6.32;;
54845;SDS011;53889;50.084;8.646;2023-04-06T13:18:20;9.38;;;6.47;;
54845;SDS011;53889;50.084;8.646;2023-04-06T13:20:47;10.63;;;7.07;;
54845;SDS011;53889;50.084;8.646;2023-04-06T13:23:14;10.00;;;6.72;;
54845;SDS011;53889;50.084;8.646;2023-04-06T13:25:41;14.50;;;8.38;;
54845;SDS011;53889;50.084;8.646;2023-04-06T13:28:08;10.68;;;7.05;;
54845;SDS011;53889;50.084;8.646;2023-04-06T13:30:35;10.18;;;7.20;;
54845;SDS011;53889;50.084;8.646;2023-04-06T13:33:03;10.13;;;6.30;;
54845;SDS011;53889;50.084;8.646;2023-04-06T13:35:31;10.85;;;6.28;;
54845;SDS011;53889;50.084;8.646;2023-04-06T13:37:58;11.27;;;6.50;;
54845;SDS011;53889;50.084;8.646;2023-04-06T13:40:24;9.15;;;5.93;;
54845;SDS011;53889;50.084;8.646;2023-04-06T13:42:51;12.63;;;7.28;;
54845;SDS011;53889;50.084;8.646;2023-04-06T13:45:18;11.30;;;7.05;;
54845;SDS011;53889;50.084;8.646;2023-04-06T13:47:45;10.40;;;6.18;;
54845;SDS011;53889;50.084;8.646;2023-04-06T13:50:13;10.32;;;6.07;;
54845;SDS011;53889;50.084;8.646;2023-04-06T13:52:39;10.80;;;6.45;;
54845;SDS011;53889;50.084;8.646;2023-04-06T13:55:07;8.77;;;6.22;;
54845;SDS011;53889;50.084;8.646;2023-04-06T13:57:34;9.68;;;6.30;;
54845;SDS011;53889;50.084;8.646;2023-04-06T14:00:01;11.45;;;6.00;;
54845;SDS011;53889;50.084;8.646;2023-04-06T14:02:30;10.77;;;6.15;;
54845;SDS011;53889;50.084;8.646;2023-04-06T14:04:56;9.45;;;6.43;;
54845;SDS011;53889;50.084;8.646;2023-04-06T14:07:24;9.10;;;5.68;;
54845;SDS011;53889;50.084;8.646;2023-04-06T14:09:51;8.98;;;6.00;;
54845;SDS011;53889;50.084;8.646;2023-04-06T14:12:18;9.60;;;5.90;;
54845;SDS011;53889;50.084;8.646;2023-04-06T14:14:45;9.95;;;6.25;;
54845;SDS011;53889;50.084;8.646;2023-04-06T14:17:12;10.18;;;5.60;;
54845;SDS011;53889;50.084;8.646;2023-04-06T14:19:39;9.02;;;5.60;;
54845;SDS011;53889;50.084;8.646;2023-04-06T14:22:06;8.77;;;5.60;;
54845;SDS011;53889;50.084;8.646;2023-04-06T14:24:34;9.13;;;5.50;;
54845;SDS011;53889;50.084;8.646;2023-04-06T14:27:02;8.18;;;5.60;;
54845;SDS011;53889;50.084;8.646;2023-04-06T14:29:28;7.93;;;5.40;;
54845;SDS011;53889;50.084;8.646;2023-04-06T14:31:55;9.73;;;5.72;;
54845;SDS011;53889;50.084;8.646;2023-04-06T14:34:25;9.20;;;5.57;;
54845;SDS011;53889;50.084;8.646;2023-04-06T14:36:51;8.45;;;5.63;;
54845;SDS011;53889;50.084;8.646;2023-04-06T14:39:18;8.90;;;5.72;;
54845;SDS011;53889;50.084;8.646;2023-04-06T14:41:46;9.05;;;5.70;;
54845;SDS011;53889;50.084;8.646;2023-04-06T14:44:13;10.32;;;6.20;;
54845;SDS011;53889;50.084;8.646;2023-04-06T14:46:41;8.55;;;5.47;;